| time (UTC) | temp C | wind direction | speed KPH | gust KPH | rain 1hr cm | rain 24hr cm | rain mn cm | humidity % | barometer mb |
| 20260906133034 | 21 | 64 | 4.8 | 4.8 | 0.00 | 0.00 | 0.00 | 87 | 1015.7 |
| 20260906132529 | 20 | 15 | 4.8 | 8.0 | 0.00 | 0.00 | 0.00 | 87 | 1015.9 |
| 20260906132025 | 20 | 79 | 1.6 | 1.6 | 0.00 | 0.00 | 0.00 | 88 | 1015.6 |
| 20260906131520 | 20 | 66 | 4.8 | 4.8 | 0.00 | 0.00 | 0.00 | 88 | 1015.6 |
| 20260906131021 | 20 | 42 | 4.8 | 8.0 | 0.00 | 0.00 | 0.00 | 88 | 1015.7 |
| 20260906130520 | 20 | 35 | 4.8 | 8.0 | 0.00 | 0.00 | 0.00 | 88 | 1015.9 |
| 20260906130015 | 20 | 27 | 1.6 | 1.6 | 0.00 | 0.00 | 0.00 | 88 | 1015.6 |
| 20260906125513 | 20 | 60 | 3.2 | 3.2 | 0.00 | 0.00 | 0.00 | 89 | 1015.7 |
| 20260906125013 | 20 | 101 | 4.8 | 8.0 | 0.00 | 0.00 | 0.00 | 89 | 1015.7 |
| 20260906124508 | 20 | 63 | 6.4 | 9.7 | 0.00 | 0.00 | 0.00 | 90 | 1015.5 |
| 20260906124003 | 19 | 4 | 3.2 | 3.2 | 0.00 | 0.00 | 0.00 | 90 | 1015.4 |
| 20260906123456 | 19 | 159 | 0.0 | 1.6 | 0.00 | 0.00 | 0.00 | 91 | 1015.5 |
| 20260906122950 | 19 | 43 | 8.0 | 11.3 | 0.00 | 0.00 | 0.00 | 92 | 1015.3 |
| 20260906122445 | 19 | 53 | 1.6 | 3.2 | 0.00 | 0.00 | 0.00 | 92 | 1015.2 |
| 20260906121942 | 18 | 352 | 3.2 | 4.8 | 0.00 | 0.00 | 0.00 | 92 | 1015.2 |
| 20260906121438 | 18 | 35 | 4.8 | 4.8 | 0.00 | 0.00 | 0.00 | 92 | 1015.2 |
| 20260906120935 | 18 | 83 | 3.2 | 3.2 | 0.00 | 0.00 | 0.00 | 93 | 1015.0 |
| 20260906120429 | 18 | 356 | 4.8 | 4.8 | 0.00 | 0.00 | 0.00 | 93 | 1015.0 |
| 20260906115926 | 18 | 40 | 1.6 | 3.2 | 0.00 | 0.00 | 0.00 | 94 | 1015.2 |
| 20260906115421 | 18 | 57 | 3.2 | 3.2 | 0.00 | 0.00 | 0.00 | 95 | 1014.9 |
| 20260906114920 | 18 | 66 | 1.6 | 3.2 | 0.00 | 0.00 | 0.00 | 95 | 1015.0 |
| 20260906114415 | 18 | 254 | 1.6 | 1.6 | 0.00 | 0.00 | 0.00 | 95 | 1015.4 |
| 20260906113911 | 18 | 235 | 0.0 | 1.6 | 0.00 | 0.00 | 0.00 | 95 | 1014.9 |
| 20260906113409 | 18 | 279 | 3.2 | 4.8 | 0.00 | 0.00 | 0.00 | 95 | 1014.7 |
| 20260906112900 | 18 | 23 | 3.2 | 3.2 | 0.00 | 0.00 | 0.00 | 95 | 1014.5 |
| 20260906112355 | 18 | 274 | 1.6 | 1.6 | 0.00 | 0.00 | 0.00 | 95 | 1014.7 |
| 20260906111850 | 18 | 272 | 1.6 | 1.6 | 0.00 | 0.00 | 0.00 | 95 | 1014.7 |
| 20260906111350 | 18 | 297 | 1.6 | 1.6 | 0.00 | 0.00 | 0.00 | 95 | 1014.5 |
| 20260906110844 | 18 | 333 | 1.6 | 1.6 | 0.00 | 0.00 | 0.00 | 95 | 1014.5 |
| 20260906110340 | 18 | 293 | 1.6 | 1.6 | 0.00 | 0.00 | 0.00 | 95 | 1014.2 |
| 20260906105839 | 18 | 278 | 1.6 | 1.6 | 0.00 | 0.00 | 0.00 | 95 | 1014.2 |
| 20260906105335 | 18 | 53 | 1.6 | 1.6 | 0.00 | 0.00 | 0.00 | 96 | 1014.1 |
| 20260906104831 | 18 | 10 | 1.6 | 1.6 | 0.00 | 0.00 | 0.00 | 96 | 1014.1 |
| 20260906104329 | 18 | 272 | 0.0 | 0.0 | 0.00 | 0.00 | 0.00 | 96 | 1014.1 |
| 20260906103828 | 18 | 292 | 1.6 | 1.6 | 0.00 | 0.00 | 0.00 | 96 | 1014.2 |
| 20260906103326 | 18 | 351 | 3.2 | 3.2 | 0.00 | 0.00 | 0.00 | 95 | 1013.8 |
| 20260906102823 | 18 | 321 | 3.2 | 3.2 | 0.00 | 0.00 | 0.00 | 96 | 1013.8 |
| 20260906102321 | 18 | 346 | 1.6 | 1.6 | 0.00 | 0.00 | 0.00 | 96 | 1013.8 |
| 20260906101817 | 18 | 356 | 3.2 | 3.2 | 0.00 | 0.00 | 0.00 | 96 | 1013.7 |
| 20260906101312 | 18 | 295 | 3.2 | 3.2 | 0.00 | 0.00 | 0.00 | 96 | 1013.7 |
| 20260906100808 | 18 | 16 | 1.6 | 1.6 | 0.00 | 0.00 | 0.00 | 96 | 1013.7 |
| 20260906100306 | 19 | 84 | 3.2 | 3.2 | 0.00 | 0.00 | 0.00 | 96 | 1013.6 |
| 20260906095802 | 19 | 249 | 0.0 | 0.0 | 0.00 | 0.00 | 0.00 | 96 | 1013.7 |
| 20260906095257 | 19 | 242 | 1.6 | 1.6 | 0.00 | 0.00 | 0.00 | 96 | 1013.5 |
| 20260906094750 | 19 | 106 | 4.8 | 4.8 | 0.00 | 0.00 | 0.00 | 96 | 1013.7 |
| 20260906094246 | 19 | 325 | 1.6 | 1.6 | 0.00 | 0.00 | 0.00 | 97 | 1013.5 |
| 20260906093742 | 19 | 8 | 1.6 | 1.6 | 0.00 | 0.00 | 0.00 | 97 | 1013.6 |
| 20260906093238 | 19 | 62 | 0.0 | 1.6 | 0.00 | 0.00 | 0.00 | 97 | 1013.7 |
| 20260906092732 | 20 | 65 | 0.0 | 0.0 | 0.00 | 0.00 | 0.00 | 97 | 1013.7 |
| 20260906092232 | 20 | 247 | 0.0 | 1.6 | 0.00 | 0.00 | 0.00 | 97 | 1013.6 |
| 20260906091727 | 20 | 292 | 1.6 | 1.6 | 0.00 | 0.00 | 0.00 | 96 | 1013.9 |
| 20260906091224 | 20 | 345 | 3.2 | 3.2 | 0.00 | 0.00 | 0.00 | 97 | 1013.6 |
| 20260906090720 | 20 | 293 | 0.0 | 1.6 | 0.00 | 0.00 | 0.00 | 97 | 1013.6 |
| 20260906090219 | 20 | 3 | 1.6 | 1.6 | 0.00 | 0.00 | 0.00 | 97 | 1013.4 |
| 20260906085719 | 20 | 37 | 1.6 | 3.2 | 0.00 | 0.00 | 0.00 | 97 | 1013.3 |
| 20260906085217 | 20 | 286 | 1.6 | 1.6 | 0.00 | 0.00 | 0.00 | 98 | 1013.5 |
| 20260906084713 | 20 | 344 | 1.6 | 1.6 | 0.00 | 0.00 | 0.00 | 98 | 1013.5 |
| 20260906084207 | 20 | 42 | 4.8 | 8.0 | 0.00 | 0.00 | 0.00 | 98 | 1013.5 |
| 20260906083701 | 20 | 320 | 1.6 | 1.6 | 0.00 | 0.00 | 0.00 | 99 | 1013.7 |
| 20260906083156 | 21 | 275 | 1.6 | 1.6 | 0.00 | 0.00 | 0.00 | 99 | 1013.6 |
| 20260906082651 | 21 | 267 | 0.0 | 0.0 | 0.00 | 0.00 | 0.00 | 99 | 1013.6 |
| 20260906082142 | 21 | 314 | 1.6 | 1.6 | 0.00 | 0.00 | 0.00 | 99 | 1013.5 |
| 20260906081637 | 21 | 277 | 0.0 | 1.6 | 0.00 | 0.00 | 0.00 | 99 | 1013.7 |
| 20260906081132 | 21 | 302 | 1.6 | 1.6 | 0.00 | 0.00 | 0.00 | 98 | 1013.8 |
| 20260906080628 | 21 | 308 | 1.6 | 1.6 | 0.00 | 0.00 | 0.00 | 98 | 1013.5 |
| 20260906080125 | 21 | 312 | 1.6 | 1.6 | 0.00 | 0.00 | 0.00 | 98 | 1013.4 |
| 20260906075624 | 21 | 35 | 3.2 | 3.2 | 0.00 | 0.00 | 0.00 | 98 | 1013.6 |
| 20260906075119 | 21 | 33 | 3.2 | 4.8 | 0.00 | 0.00 | 0.00 | 98 | 1013.3 |
| 20260906074614 | 21 | 357 | 1.6 | 3.2 | 0.00 | 0.00 | 0.00 | 99 | 1013.4 |
| 20260906074113 | 21 | 284 | 0.0 | 0.0 | 0.00 | 0.00 | 0.00 | 99 | 1013.2 |
| 20260906073607 | 21 | 30 | 3.2 | 4.8 | 0.00 | 0.00 | 0.00 | 99 | 1013.4 |
| 20260906073103 | 21 | 35 | 1.6 | 1.6 | 0.00 | 0.00 | 0.00 | 99 | 1013.3 |
| 20260906072559 | 21 | 355 | 3.2 | 3.2 | 0.00 | 0.00 | 0.00 | 99 | 1013.3 |
| 20260906072055 | 21 | 64 | 1.6 | 3.2 | 0.00 | 0.00 | 0.00 | 98 | 1013.4 |
| 20260906071551 | 21 | 268 | 0.0 | 0.0 | 0.00 | 0.00 | 0.00 | 98 | 1013.5 |
| 20260906071050 | 21 | 229 | 0.0 | 0.0 | 0.00 | 0.00 | 0.00 | 98 | 1013.5 |
| 20260906070548 | 21 | 163 | 0.0 | 1.6 | 0.00 | 0.00 | 0.00 | 98 | 1013.4 |
| 20260906070043 | 21 | 272 | 0.0 | 1.6 | 0.00 | 0.00 | 0.00 | 98 | 1013.5 |
| 20260906065542 | 21 | 323 | 1.6 | 1.6 | 0.00 | 0.00 | 0.00 | 98 | 1013.5 |
| 20260906065038 | 21 | 355 | 3.2 | 3.2 | 0.00 | 0.00 | 0.00 | 99 | 1013.5 |
| 20260906064534 | 21 | 274 | 0.0 | 0.0 | 0.00 | 0.00 | 0.00 | 99 | 1013.5 |
| 20260906064028 | 21 | 256 | 0.0 | 0.0 | 0.00 | 0.00 | 0.00 | 99 | 1013.5 |
| 20260906063524 | 21 | 262 | 0.0 | 0.0 | 0.00 | 0.00 | 0.00 | 99 | 1013.3 |
| 20260906063020 | 21 | 40 | 1.6 | 1.6 | 0.00 | 0.00 | 0.00 | 99 | 1013.4 |
| 20260906062515 | 21 | 38 | 3.2 | 3.2 | 0.00 | 0.00 | 0.00 | 99 | 1013.4 |
| 20260906062009 | 21 | 67 | 1.6 | 1.6 | 0.00 | 0.00 | 0.00 | 99 | 1013.5 |
| 20260906061506 | 21 | 286 | 0.0 | 0.0 | 0.00 | 0.00 | 0.00 | 99 | 1013.6 |
| 20260906061005 | 21 | 339 | 0.0 | 0.0 | 0.00 | 0.00 | 0.00 | 99 | 1013.5 |
| 20260906060502 | 21 | 334 | 0.0 | 1.6 | 0.00 | 0.00 | 0.00 | 99 | 1013.6 |
| 20260906055958 | 21 | 250 | 0.0 | 0.0 | 0.00 | 0.00 | 0.00 | 99 | 1013.6 |
| 20260906055448 | 21 | 258 | 0.0 | 0.0 | 0.00 | 0.00 | 0.00 | 99 | 1013.5 |
| 20260906054943 | 21 | 358 | 1.6 | 1.6 | 0.00 | 0.00 | 0.00 | 99 | 1013.6 |
| 20260906054438 | 21 | 173 | 1.6 | 1.6 | 0.00 | 0.00 | 0.00 | 99 | 1013.6 |
| 20260906053934 | 21 | 263 | 0.0 | 1.6 | 0.00 | 0.00 | 0.00 | 99 | 1013.2 |
| 20260906053430 | 21 | 240 | 0.0 | 1.6 | 0.00 | 0.00 | 0.00 | 99 | 1013.5 |
| 20260906052925 | 21 | 290 | 0.0 | 1.6 | 0.00 | 0.00 | 0.00 | 99 | 1013.2 |
| 20260906052421 | 21 | 244 | 0.0 | 0.0 | 0.00 | 0.00 | 0.00 | 99 | 1013.1 |
| 20260906051918 | 21 | 212 | 0.0 | 0.0 | 0.00 | 0.00 | 0.00 | 99 | 1013.4 |
| 20260906051418 | 21 | 300 | 0.0 | 1.6 | 0.00 | 0.00 | 0.00 | 99 | 1013.4 |
| 20260906050914 | 21 | 5 | 1.6 | 1.6 | 0.00 | 0.00 | 0.00 | 99 | 1013.5 |
| 20260906050408 | 21 | 238 | 0.0 | 0.0 | 0.00 | 0.00 | 0.00 | 99 | 1013.3 |
| 20260906045907 | 21 | 237 | 0.0 | 0.0 | 0.00 | 0.00 | 0.00 | 99 | 1013.4 |
| 20260906045406 | 22 | 226 | 0.0 | 0.0 | 0.00 | 0.00 | 0.00 | 99 | 1013.3 |
| 20260906044903 | 22 | 225 | 0.0 | 0.0 | 0.00 | 0.00 | 0.00 | 99 | 1013.1 |
| 20260906044402 | 22 | 218 | 0.0 | 0.0 | 0.00 | 0.00 | 0.00 | 99 | 1013.2 |
| 20260906043858 | 22 | 236 | 0.0 | 0.0 | 0.00 | 0.00 | 0.00 | 99 | 1013.3 |
| 20260906043354 | 22 | 227 | 0.0 | 0.0 | 0.00 | 0.00 | 0.00 | 99 | 1012.9 |
| 20260906042849 | 22 | 311 | 1.6 | 1.6 | 0.00 | 0.00 | 0.00 | 99 | 1013.2 |
| 20260906042348 | 22 | 339 | 1.6 | 1.6 | 0.00 | 0.00 | 0.00 | 99 | 1013.2 |
| 20260906041843 | 22 | 348 | 3.2 | 3.2 | 0.00 | 0.00 | 0.00 | 99 | 1013.1 |
| 20260906041339 | 22 | 42 | 0.0 | 1.6 | 0.00 | 0.00 | 0.00 | 99 | 1013.2 |
| 20260906040834 | 22 | 36 | 3.2 | 3.2 | 0.00 | 0.00 | 0.00 | 99 | 1012.9 |
| 20260906040329 | 22 | 158 | 1.6 | 1.6 | 0.00 | 0.00 | 0.00 | 99 | 1013.1 |
| 20260906035824 | 22 | 180 | 0.0 | 1.6 | 0.00 | 0.86 | 0.86 | 99 | 1013.1 |
| 20260906035320 | 22 | 52 | 1.6 | 1.6 | 0.00 | 0.86 | 0.86 | 99 | 1013.1 |
| 20260906034815 | 22 | 231 | 0.0 | 0.0 | 0.00 | 0.86 | 0.86 | 98 | 1012.9 |
| 20260906034314 | 22 | 29 | 3.2 | 3.2 | 0.00 | 0.86 | 0.86 | 98 | 1013.1 |
| 20260906033810 | 22 | 36 | 1.6 | 1.6 | 0.00 | 0.86 | 0.86 | 98 | 1013.2 |
| 20260906033309 | 22 | 210 | 0.0 | 1.6 | 0.00 | 0.86 | 0.86 | 98 | 1013.2 |
| 20260906032806 | 22 | 210 | 0.0 | 1.6 | 0.00 | 0.86 | 0.86 | 98 | 1013.2 |
| 20260906032305 | 22 | 221 | 0.0 | 0.0 | 0.00 | 0.86 | 0.86 | 97 | 1013.3 |
| 20260906031756 | 22 | 232 | 0.0 | 0.0 | 0.00 | 0.86 | 0.86 | 97 | 1013.3 |
| 20260906031252 | 22 | 234 | 0.0 | 0.0 | 0.00 | 0.86 | 0.86 | 97 | 1013.4 |
| 20260906030746 | 23 | 227 | 0.0 | 0.0 | 0.00 | 0.86 | 0.86 | 97 | 1013.6 |
| 20260906030242 | 23 | 234 | 0.0 | 0.0 | 0.00 | 0.86 | 0.86 | 96 | 1013.6 |
| 20260906025742 | 23 | 219 | 0.0 | 0.0 | 0.00 | 0.86 | 0.86 | 96 | 1013.4 |
| 20260906025241 | 23 | 222 | 0.0 | 1.6 | 0.00 | 0.86 | 0.86 | 96 | 1013.3 |
| 20260906024740 | 23 | 86 | 1.6 | 1.6 | 0.00 | 0.86 | 0.86 | 95 | 1013.2 |
| 20260906024239 | 23 | 84 | 0.0 | 1.6 | 0.00 | 0.86 | 0.86 | 95 | 1013.4 |
| 20260906023735 | 23 | 82 | 0.0 | 1.6 | 0.00 | 0.86 | 0.86 | 94 | 1013.4 |
| 20260906023230 | 23 | 211 | 0.0 | 1.6 | 0.00 | 0.86 | 0.86 | 94 | 1013.4 |
| 20260906022726 | 23 | 96 | 3.2 | 3.2 | 0.00 | 0.86 | 0.86 | 94 | 1013.3 |
| 20260906022221 | 23 | 28 | 4.8 | 4.8 | 0.00 | 0.86 | 0.86 | 93 | 1013.3 |
| 20260906021717 | 23 | 357 | 3.2 | 3.2 | 0.00 | 0.86 | 0.86 | 93 | 1013.6 |
| 20260906021216 | 24 | 51 | 6.4 | 9.7 | 0.00 | 0.86 | 0.86 | 93 | 1013.7 |
| 20260906020711 | 24 | 44 | 3.2 | 3.2 | 0.00 | 0.86 | 0.86 | 93 | 1013.3 |
| 20260906020206 | 24 | 40 | 4.8 | 4.8 | 0.00 | 0.86 | 0.86 | 93 | 1013.5 |
| 20260906015705 | 24 | 292 | 3.2 | 3.2 | 0.00 | 0.86 | 0.86 | 93 | 1013.1 |
| 20260906015158 | 24 | 61 | 4.8 | 8.0 | 0.00 | 0.86 | 0.86 | 92 | 1013.2 |
| 20260906014653 | 24 | 40 | 3.2 | 4.8 | 0.00 | 0.86 | 0.86 | 93 | 1013.2 |
| 20260906014149 | 24 | 8 | 4.8 | 4.8 | 0.00 | 0.86 | 0.86 | 93 | 1013.3 |
| 20260906013645 | 24 | 63 | 1.6 | 3.2 | 0.00 | 0.86 | 0.86 | 94 | 1013.0 |
| 20260906013140 | 24 | 22 | 3.2 | 4.8 | 0.00 | 0.86 | 0.86 | 94 | 1012.8 |
| 20260906012639 | 24 | 68 | 4.8 | 4.8 | 0.00 | 0.86 | 0.86 | 94 | 1012.9 |
| 20260906012134 | 23 | 22 | 6.4 | 9.7 | 0.00 | 0.86 | 0.86 | 95 | 1012.8 |
| 20260906011630 | 23 | 35 | 4.8 | 8.0 | 0.00 | 0.86 | 0.86 | 97 | 1012.5 |
| 20260906011125 | 23 | 74 | 4.8 | 8.0 | 0.00 | 0.86 | 0.86 | 97 | 1012.0 |
| 20260906010620 | 23 | 69 | 1.6 | 1.6 | 0.00 | 0.86 | 0.86 | 97 | 1012.0 |
| 20260906010116 | 23 | 33 | 1.6 | 1.6 | 0.00 | 0.86 | 0.86 | 97 | 1012.2 |
| 20260906005615 | 23 | 16 | 1.6 | 1.6 | 0.00 | 0.86 | 0.86 | 96 | 1012.2 |
| 20260906005114 | 23 | 15 | 0.0 | 0.0 | 0.00 | 0.86 | 0.86 | 96 | 1012.2 |
| 20260906004614 | 23 | 15 | 0.0 | 0.0 | 0.00 | 0.86 | 0.86 | 96 | 1012.1 |
| 20260906004108 | 23 | 15 | 0.0 | 0.0 | 0.00 | 0.86 | 0.86 | 96 | 1012.2 |
| 20260906003604 | 23 | 15 | 0.0 | 1.6 | 0.00 | 0.86 | 0.86 | 95 | 1012.2 |
| 20260906003100 | 24 | 15 | 0.0 | 0.0 | 0.00 | 0.86 | 0.86 | 95 | 1012.3 |
| 20260906002554 | 24 | 16 | 1.6 | 1.6 | 0.00 | 0.86 | 0.86 | 95 | 1012.3 |
| 20260906002049 | 24 | 15 | 0.0 | 1.6 | 0.00 | 0.86 | 0.86 | 95 | 1012.1 |
| 20260906001539 | 24 | 15 | 0.0 | 0.0 | 0.00 | 0.86 | 0.86 | 95 | 1012.2 |
| 20260906001038 | 25 | 16 | 0.0 | 0.0 | 0.00 | 0.86 | 0.86 | 94 | 1012.1 |
| 20260906000534 | 25 | 57 | 1.6 | 3.2 | 0.00 | 0.86 | 0.86 | 94 | 1012.2 |
| 20260906000030 | 25 | 16 | 0.0 | 1.6 | 0.00 | 0.86 | 0.86 | 93 | 1012.0 |
| 20260905235524 | 25 | 15 | 0.0 | 0.0 | 0.00 | 0.86 | 0.86 | 92 | 1011.9 |
| 20260905235019 | 25 | 347 | 0.0 | 1.6 | 0.00 | 0.86 | 0.86 | 91 | 1012.1 |
| 20260905234515 | 26 | 294 | 1.6 | 1.6 | 0.00 | 0.86 | 0.86 | 89 | 1012.1 |
| 20260905234014 | 26 | 293 | 1.6 | 1.6 | 0.00 | 0.86 | 0.86 | 87 | 1012.1 |
| 20260905233509 | 27 | 285 | 0.0 | 1.6 | 0.00 | 0.86 | 0.86 | 84 | 1011.9 |
| 20260905233009 | 27 | 258 | 0.0 | 0.0 | 0.00 | 0.86 | 0.86 | 80 | 1011.9 |
| 20260905232504 | 27 | 279 | 3.2 | 3.2 | 0.00 | 0.86 | 0.86 | 79 | 1011.9 |
| 20260905232000 | 27 | 267 | 1.6 | 3.2 | 0.00 | 0.86 | 0.86 | 79 | 1011.9 |
| 20260905231450 | 27 | 264 | 0.0 | 1.6 | 0.00 | 0.86 | 0.86 | 79 | 1011.9 |
| 20260905230947 | 28 | 264 | 1.6 | 1.6 | 0.00 | 0.86 | 0.86 | 78 | 1012.1 |
| 20260905230444 | 28 | 290 | 0.0 | 1.6 | 0.00 | 0.86 | 0.86 | 76 | 1011.8 |
| 20260905225937 | 28 | 278 | 1.6 | 1.6 | 0.00 | 0.86 | 0.86 | 74 | 1011.7 |
| 20260905225432 | 28 | 246 | 1.6 | 1.6 | 0.00 | 0.86 | 0.86 | 74 | 1012.0 |
| 20260905224927 | 29 | 14 | 1.6 | 1.6 | 0.00 | 0.86 | 0.86 | 73 | 1011.9 |
| 20260905224423 | 29 | 264 | 3.2 | 3.2 | 0.00 | 0.86 | 0.86 | 73 | 1012.1 |
| 20260905223916 | 29 | 264 | 1.6 | 3.2 | 0.00 | 0.86 | 0.86 | 73 | 1012.0 |
| 20260905223414 | 29 | 275 | 1.6 | 1.6 | 0.00 | 0.86 | 0.86 | 73 | 1011.8 |
| 20260905222909 | 30 | 266 | 0.0 | 1.6 | 0.00 | 0.86 | 0.86 | 71 | 1012.0 |
| 20260905222408 | 30 | 302 | 1.6 | 1.6 | 0.00 | 0.86 | 0.86 | 72 | 1012.0 |
| 20260905221904 | 30 | 257 | 3.2 | 3.2 | 0.00 | 0.86 | 0.86 | 71 | 1011.7 |
| 20260905221401 | 29 | 282 | 4.8 | 4.8 | 0.00 | 0.86 | 0.86 | 71 | 1011.9 |
| 20260905220856 | 30 | 292 | 3.2 | 3.2 | 0.00 | 0.86 | 0.86 | 69 | 1011.9 |
| 20260905220352 | 29 | 288 | 1.6 | 3.2 | 0.00 | 0.86 | 0.86 | 72 | 1011.9 |
| 20260905215851 | 30 | 255 | 3.2 | 3.2 | 0.00 | 0.86 | 0.86 | 70 | 1011.9 |
| 20260905215347 | 29 | 322 | 1.6 | 1.6 | 0.00 | 0.86 | 0.86 | 71 | 1012.0 |
| 20260905214843 | 29 | 229 | 8.0 | 11.3 | 0.00 | 0.86 | 0.86 | 70 | 1012.1 |
| 20260905214338 | 30 | 226 | 4.8 | 8.0 | 0.00 | 0.86 | 0.86 | 67 | 1011.7 |
| 20260905213833 | 30 | 249 | 4.8 | 4.8 | 0.00 | 0.86 | 0.86 | 67 | 1011.7 |
| 20260905213329 | 30 | 323 | 1.6 | 1.6 | 0.00 | 0.86 | 0.86 | 67 | 1011.7 |
| 20260905212824 | 30 | 275 | 1.6 | 1.6 | 0.00 | 0.86 | 0.86 | 69 | 1011.7 |
| 20260905212318 | 29 | 68 | 1.6 | 3.2 | 0.00 | 0.86 | 0.86 | 69 | 1011.8 |
| 20260905211813 | 30 | 317 | 1.6 | 1.6 | 0.00 | 0.86 | 0.86 | 68 | 1011.6 |
| 20260905211308 | 30 | 278 | 0.0 | 1.6 | 0.00 | 0.86 | 0.86 | 69 | 1011.8 |
| 20260905210805 | 30 | 230 | 4.8 | 4.8 | 0.00 | 0.86 | 0.86 | 68 | 1011.7 |
| 20260905210304 | 30 | 242 | 1.6 | 1.6 | 0.00 | 0.86 | 0.86 | 67 | 1011.8 |
| 20260905205803 | 30 | 226 | 4.8 | 8.0 | 0.00 | 0.86 | 0.86 | 67 | 1011.9 |
| 20260905205258 | 30 | 237 | 0.0 | 1.6 | 0.00 | 0.86 | 0.86 | 69 | 1011.9 |
| 20260905204757 | 30 | 227 | 0.0 | 1.6 | 0.00 | 0.86 | 0.86 | 65 | 1011.8 |
| 20260905204254 | 30 | 297 | 1.6 | 3.2 | 0.00 | 0.86 | 0.86 | 66 | 1012.2 |
| 20260905203752 | 30 | 234 | 1.6 | 3.2 | 0.00 | 0.86 | 0.86 | 66 | 1011.9 |
| 20260905203248 | 30 | 252 | 4.8 | 4.8 | 0.00 | 0.86 | 0.86 | 66 | 1012.1 |
| 20260905202744 | 30 | 243 | 1.6 | 1.6 | 0.00 | 0.86 | 0.86 | 64 | 1012.1 |
| 20260905202238 | 30 | 252 | 4.8 | 4.8 | 0.00 | 0.86 | 0.86 | 67 | 1012.0 |
| 20260905201734 | 30 | 234 | 3.2 | 3.2 | 0.00 | 0.86 | 0.86 | 66 | 1012.2 |
| 20260905201229 | 30 | 257 | 4.8 | 4.8 | 0.00 | 0.86 | 0.86 | 63 | 1012.3 |
| 20260905200724 | 29 | 263 | 4.8 | 8.0 | 0.00 | 0.86 | 0.86 | 70 | 1012.2 |
| 20260905200220 | 30 | 240 | 1.6 | 1.6 | 0.00 | 0.86 | 0.86 | 66 | 1012.4 |
| 20260905195718 | 30 | 210 | 4.8 | 4.8 | 0.00 | 0.86 | 0.86 | 67 | 1012.3 |
| 20260905195212 | 29 | 273 | 3.2 | 4.8 | 0.00 | 0.86 | 0.86 | 70 | 1012.5 |
| 20260905194708 | 30 | 256 | 9.7 | 11.3 | 0.00 | 0.86 | 0.86 | 68 | 1012.6 |
| 20260905194208 | 30 | 288 | 4.8 | 4.8 | 0.00 | 0.86 | 0.86 | 69 | 1012.7 |
| 20260905193702 | 30 | 200 | 3.2 | 3.2 | 0.00 | 0.86 | 0.86 | 69 | 1012.5 |
| 20260905193157 | 31 | 230 | 0.0 | 1.6 | 0.00 | 0.86 | 0.86 | 69 | 1012.7 |
| 20260905192653 | 30 | 229 | 3.2 | 3.2 | 0.00 | 0.86 | 0.86 | 69 | 1012.5 |
| 20260905192149 | 30 | 248 | 4.8 | 8.0 | 0.00 | 0.86 | 0.86 | 69 | 1012.5 |
| 20260905191648 | 29 | 191 | 6.4 | 9.7 | 0.00 | 0.86 | 0.86 | 69 | 1012.7 |
| 20260905191146 | 29 | 275 | 6.4 | 8.0 | 0.00 | 0.86 | 0.86 | 72 | 1012.9 |
| 20260905190644 | 30 | 224 | 4.8 | 4.8 | 0.00 | 0.86 | 0.86 | 71 | 1013.0 |
| 20260905190138 | 30 | 262 | 4.8 | 4.8 | 0.00 | 0.86 | 0.86 | 69 | 1012.9 |
| 20260905185638 | 30 | 257 | 1.6 | 3.2 | 0.00 | 0.86 | 0.86 | 70 | 1013.1 |
| 20260905185138 | 29 | 255 | 3.2 | 3.2 | 0.00 | 0.86 | 0.86 | 72 | 1013.1 |
| 20260905184632 | 30 | 209 | 0.0 | 1.6 | 0.00 | 0.86 | 0.86 | 68 | 1013.1 |
| 20260905184131 | 29 | 253 | 4.8 | 4.8 | 0.00 | 0.86 | 0.86 | 69 | 1013.2 |
| 20260905183630 | 28 | 160 | 3.2 | 4.8 | 0.00 | 0.86 | 0.86 | 71 | 1013.3 |
| 20260905183126 | 28 | 239 | 4.8 | 8.0 | 0.00 | 0.86 | 0.86 | 72 | 1013.2 |
| 20260905182625 | 28 | 244 | 6.4 | 8.0 | 0.00 | 0.86 | 0.86 | 73 | 1013.4 |
| 20260905182125 | 28 | 235 | 4.8 | 4.8 | 0.00 | 0.86 | 0.86 | 73 | 1013.5 |
| 20260905181620 | 28 | 216 | 3.2 | 3.2 | 0.00 | 0.86 | 0.86 | 73 | 1013.4 |
| 20260905181119 | 28 | 193 | 3.2 | 4.8 | 0.00 | 0.86 | 0.86 | 73 | 1013.3 |
| 20260905180614 | 29 | 253 | 1.6 | 1.6 | 0.00 | 0.86 | 0.86 | 72 | 1013.4 |
| 20260905180109 | 29 | 237 | 4.8 | 4.8 | 0.00 | 0.86 | 0.86 | 72 | 1013.6 |
| 20260905175609 | 28 | 233 | 4.8 | 4.8 | 0.00 | 0.86 | 0.86 | 73 | 1013.6 |
| 20260905175104 | 28 | 200 | 3.2 | 3.2 | 0.00 | 0.86 | 0.86 | 72 | 1013.4 |
| 20260905174600 | 28 | 249 | 1.6 | 1.6 | 0.00 | 0.86 | 0.86 | 74 | 1013.6 |
| 20260905174055 | 29 | 172 | 4.8 | 4.8 | 0.00 | 0.86 | 0.86 | 72 | 1013.6 |
| 20260905173551 | 28 | 236 | 4.8 | 4.8 | 0.00 | 0.86 | 0.86 | 74 | 1013.8 |
| 20260905173047 | 28 | 211 | 3.2 | 3.2 | 0.00 | 0.86 | 0.86 | 76 | 1013.5 |
| 20260905172545 | 28 | 259 | 8.0 | 9.7 | 0.00 | 0.86 | 0.86 | 78 | 1013.6 |
| 20260905172040 | 28 | 250 | 6.4 | 8.0 | 0.00 | 0.86 | 0.86 | 76 | 1014.1 |
| 20260905171537 | 27 | 203 | 4.8 | 8.0 | 0.00 | 0.86 | 0.86 | 78 | 1013.9 |
| 20260905171033 | 27 | 225 | 1.6 | 1.6 | 0.00 | 0.86 | 0.86 | 78 | 1014.1 |
| 20260905170529 | 27 | 252 | 1.6 | 1.6 | 0.00 | 0.86 | 0.86 | 80 | 1014.0 |
| 20260905170024 | 27 | 121 | 4.8 | 4.8 | 0.00 | 0.86 | 0.86 | 79 | 1013.7 |
| 20260905165518 | 27 | 151 | 11.3 | 11.3 | 0.00 | 0.86 | 0.86 | 76 | 1014.1 |
| 20260905165014 | 27 | 152 | 4.8 | 4.8 | 0.00 | 0.86 | 0.86 | 77 | 1013.9 |
| 20260905164508 | 27 | 176 | 4.8 | 9.7 | 0.00 | 0.86 | 0.86 | 79 | 1013.8 |
| 20260905164003 | 27 | 228 | 4.8 | 8.0 | 0.00 | 0.86 | 0.86 | 80 | 1013.9 |
| 20260905163459 | 27 | 224 | 1.6 | 3.2 | 0.00 | 0.86 | 0.86 | 80 | 1014.0 |
| 20260905162955 | 27 | 287 | 1.6 | 1.6 | 0.00 | 0.86 | 0.86 | 78 | 1014.0 |
| 20260905162450 | 26 | 189 | 1.6 | 3.2 | 0.00 | 0.86 | 0.86 | 80 | 1014.0 |
| 20260905161945 | 26 | 174 | 8.0 | 11.3 | 0.00 | 0.86 | 0.86 | 81 | 1014.3 |
| 20260905161444 | 26 | 154 | 4.8 | 4.8 | 0.00 | 0.86 | 0.86 | 80 | 1014.4 |
| 20260905160942 | 26 | 161 | 1.6 | 3.2 | 0.00 | 0.86 | 0.86 | 83 | 1014.4 |
| 20260905160436 | 26 | 110 | 3.2 | 3.2 | 0.00 | 0.86 | 0.86 | 84 | 1014.6 |
| 20260905155936 | 26 | 174 | 3.2 | 4.8 | 0.00 | 0.86 | 0.86 | 81 | 1014.7 |
| 20260905155431 | 27 | 92 | 1.6 | 1.6 | 0.00 | 0.86 | 0.86 | 82 | 1014.5 |
| 20260905154930 | 26 | 114 | 3.2 | 3.2 | 0.00 | 0.86 | 0.86 | 82 | 1014.6 |
| 20260905154425 | 26 | 59 | 8.0 | 9.7 | 0.00 | 0.86 | 0.86 | 82 | 1014.4 |
| 20260905153920 | 25 | 192 | 0.0 | 0.0 | 0.00 | 0.86 | 0.86 | 85 | 1014.5 |
| 20260905153417 | 26 | 4 | 4.8 | 4.8 | 0.00 | 0.86 | 0.86 | 85 | 1014.3 |
| 20260905152916 | 25 | 198 | 0.0 | 0.0 | 0.00 | 0.86 | 0.86 | 87 | 1014.1 |
| 20260905152415 | 25 | 319 | 0.0 | 0.0 | 0.00 | 0.86 | 0.86 | 87 | 1014.6 |
| 20260905151911 | 23 | 265 | 1.6 | 1.6 | 0.00 | 0.86 | 0.86 | 93 | 1014.6 |
| 20260905151407 | 24 | 327 | 3.2 | 3.2 | 0.00 | 0.86 | 0.86 | 92 | 1014.7 |
| 20260905150906 | 23 | 1 | 3.2 | 3.2 | 0.00 | 0.86 | 0.86 | 92 | 1014.6 |
| 20260905150401 | 23 | 20 | 3.2 | 3.2 | 0.00 | 0.86 | 0.86 | 94 | 1014.6 |
| 20260905145858 | 23 | 187 | 1.6 | 1.6 | 0.00 | 0.86 | 0.86 | 95 | 1014.8 |
| 20260905145357 | 24 | 209 | 0.0 | 1.6 | 0.00 | 0.86 | 0.86 | 96 | 1014.7 |
| 20260905144852 | 23 | 22 | 3.2 | 4.8 | 0.00 | 0.86 | 0.86 | 97 | 1014.9 |
| 20260905144348 | 23 | 92 | 6.4 | 8.0 | 0.00 | 0.86 | 0.86 | 98 | 1014.7 |
| 20260905143846 | 23 | 35 | 1.6 | 3.2 | 0.00 | 0.86 | 0.86 | 99 | 1014.7 |
| 20260905143340 | 23 | 342 | 1.6 | 1.6 | 0.00 | 0.86 | 0.86 | 99 | 1014.8 |
| 20260905142839 | 23 | 1 | 1.6 | 3.2 | 0.00 | 0.86 | 0.86 | 99 | 1014.8 |
| 20260905142338 | 22 | 342 | 3.2 | 3.2 | 0.00 | 0.86 | 0.86 | 99 | 1014.8 |
| 20260905141834 | 23 | 355 | 3.2 | 3.2 | 0.00 | 0.86 | 0.86 | 99 | 1014.6 |
| 20260905141329 | 22 | 321 | 1.6 | 3.2 | 0.00 | 0.86 | 0.86 | 99 | 1014.6 |
| 20260905140825 | 22 | 291 | 1.6 | 1.6 | 0.00 | 0.86 | 0.86 | 99 | 1014.1 |
| 20260905140320 | 22 | 332 | 3.2 | 3.2 | 0.00 | 0.86 | 0.86 | 99 | 1013.8 |
| 20260905135818 | 22 | 262 | 8.0 | 9.7 | 0.00 | 0.86 | 0.86 | 99 | 1013.4 |
| 20260905135314 | 22 | 325 | 3.2 | 4.8 | 0.00 | 0.86 | 0.86 | 99 | 1013.1 |
| 20260905134809 | 21 | 266 | 8.0 | 11.3 | 0.00 | 0.86 | 0.86 | 99 | 1013.0 |
| 20260905134303 | 21 | 260 | 6.4 | 11.3 | 0.00 | 0.86 | 0.86 | 99 | 1011.6 |
| 20260905133757 | 21 | 193 | 3.2 | 4.8 | 0.00 | 0.86 | 0.86 | 99 | 1011.5 |
| 20260905133253 | 21 | 211 | 8.0 | 9.7 | 0.00 | 0.86 | 0.86 | 99 | 1012.6 |